This is the latest recevied weather packets stored in our database for station/object KO4ZGL-13. If no packets are shown the sender has not sent any weather packets the latest 10 day(s).
| Time | Temp. | Humidity | Pressure | Rain* | Wind** | Luminosity | Snow |
|---|---|---|---|---|---|---|---|
| 1788622333 | 31.67° C | 81% | 1014.7 hPa | 0 mm | - | 117 W/m² | - |
| 1788622027 | 32.22° C | 78% | 1014.6 hPa | 0 mm | - | 525 W/m² | - |
| 1788621721 | 31.67° C | 81% | 1014.5 hPa | 0 mm | - | 831 W/m² | - |
| 1788621421 | 31.67° C | 81% | 1014.6 hPa | 0 mm | - | 775 W/m² | - |
| 1788621117 | 31.67° C | 81% | 1014.6 hPa | 0 mm | - | 707 W/m² | - |
| 1788620812 | 31.11° C | 83% | 1014.6 hPa | 0 mm | - | 410 W/m² | - |
| 1788620510 | 30.56° C | 84% | 1014.6 hPa | 0 mm | - | 711 W/m² | - |
| 1788620209 | 30.56° C | 85% | 1014.4 hPa | 0 mm | - | 168 W/m² | - |
| 1788619909 | 30° C | 86% | 1014.8 hPa | 0 mm | - | 335 W/m² | - |
| 1788619603 | 30.56° C | 85% | 1014.8 hPa | 0 mm | - | 149 W/m² | - |
| 1788619303 | 30.56° C | 85% | 1014.6 hPa | 0 mm | - | 708 W/m² | - |
| 1788618998 | 30.56° C | 85% | 1014.7 hPa | 0 mm | - | 639 W/m² | - |
| 1788618698 | 30.56° C | 85% | 1014.7 hPa | 0 mm | - | 634 W/m² | - |
| 1788618396 | 30.56° C | 86% | 1014.9 hPa | 0 mm | - | 536 W/m² | - |
| 1788618090 | 30° C | 87% | 1014.7 hPa | 0 mm | - | 614 W/m² | - |
| 1788617785 | 29.44° C | 89% | 1014.8 hPa | 0 mm | - | 552 W/m² | - |
| 1788617482 | 28.89° C | 91% | 1014.8 hPa | 0 mm | - | 170 W/m² | - |
| 1788617177 | 28.89° C | 94% | 1014.6 hPa | 0 mm | - | 541 W/m² | - |
| 1788616876 | 28.33° C | 95% | 1014.5 hPa | 0 mm | - | 429 W/m² | - |
| 1788616571 | 27.22° C | 97% | 1014.5 hPa | 0 mm | - | 467 W/m² | - |
| 1788616266 | 27.22° C | 97% | 1014.6 hPa | 0 mm | - | 429 W/m² | - |
| 1788615961 | 27.22° C | 98% | 1014.8 hPa | 0 mm | - | 137 W/m² | - |
| 1788615669 | 27.22° C | 99% | 1014.7 hPa | 0 mm | - | 143 W/m² | - |
| 1788615355 | 26.67° C | 99% | 1014.8 hPa | 0 mm | - | 378 W/m² | - |
| 1788615054 | 26.67° C | 99% | 1014.7 hPa | 0 mm | - | 147 W/m² | - |
* Rain latest hour (hover to see other rain measurements)
** Current wind speed in m/s (hover to see current wind gust speed)